Ansley, Louisiana
Current Conditions -  °F | °C
As of 12:15 AM on Saturday 29 Nov 2014 (Local Time) from KRSN Reporting Station
Broken Clouds Broken Clouds  
Wind Chill: 51°   Ceiling: 1000
Heat Index: 51°   Visibility: 10mi
Dew Point: 49°   Wind: 10mph
Humidity: 92%   Direction: 180°S
Pressure: 30.15"   Gusts: NA
Location:  32.5075°N, 92.6828°W
Report Text: KRSN 290615Z AUTO 18009KT 10SM BKN010 11/10 A3015 RMK AO2 T01080096
Loading
Personal Weather Stations






























Interactive Weather Map New forecast layout! Learn more

10-Day Weather Forecast

Advertisements
Track Severe Weather on mobile